Time;durP1;ratioP1;P1;durP2;ratioP2;P2;SDS_P1;SDS_P2;PMS_P1;PMS_P2;Temp;Humidity;BMP_temperature;BMP_pressure;BME280_temperature;BME280_humidity;BME280_pressure;Samples;Min_cycle;Max_cycle;Signal;HPM_P1;HPM_P2
2023/07/02 00:01:49;;;;;;;;;36.67;32.67;;;;;18.04;82.33;100670.44;5042192;28;45265;-74
2023/07/02 00:04:19;;;;;;;;;42.00;34.00;;;;;18.00;84.28;100662.69;5048576;28;46326;-73
2023/07/02 00:06:48;;;;;;;;;35.00;31.33;;;;;18.02;83.08;100664.34;5053035;28;45328;-74
2023/07/02 00:09:14;;;;;;;;;41.33;29.67;;;;;17.99;83.83;100659.16;5054950;28;45546;-73
2023/07/02 00:11:43;;;;;;;;;45.33;35.67;;;;;18.01;83.43;100670.59;5051111;28;45392;-75
2023/07/02 00:14:09;;;;;;;;;44.33;33.33;;;;;18.03;84.60;100665.19;5046585;28;46491;-74
2023/07/02 00:16:37;;;;;;;;;33.67;30.00;;;;;18.00;83.96;100665.34;5050926;28;45380;-74
2023/07/02 00:19:03;;;;;;;;;46.33;33.67;;;;;17.86;84.70;100650.97;5040118;28;45539;-75
2023/07/02 00:21:29;;;;;;;;;46.33;33.33;;;;;17.92;85.36;100660.44;5056924;28;45482;-73
2023/07/02 00:23:58;;;;;;;;;37.67;25.33;;;;;17.93;84.89;100667.50;5056701;28;46357;-74
2023/07/02 00:26:27;;;;;;;;;33.67;26.67;;;;;17.93;85.89;100670.16;5057113;28;45478;-71
2023/07/02 00:28:55;;;;;;;;;37.67;31.00;;;;;17.94;85.49;100668.38;5056551;28;45406;-74
2023/07/02 00:31:21;;;;;;;;;43.33;32.67;;;;;17.87;86.63;100665.13;5050631;28;45407;-75
2023/07/02 00:33:48;;;;;;;;;47.33;34.67;;;;;17.88;85.99;100664.19;5048837;28;45593;-74
2023/07/02 00:36:16;;;;;;;;;37.00;23.33;;;;;17.87;85.70;100667.81;5039509;28;45278;-73
2023/07/02 00:38:42;;;;;;;;;47.67;33.33;;;;;17.84;87.43;100663.50;5038012;28;45455;-74
2023/07/02 00:41:09;;;;;;;;;36.33;29.33;;;;;17.83;85.07;100659.09;5044662;28;45357;-73
2023/07/02 00:43:34;;;;;;;;;48.33;34.00;;;;;17.78;85.99;100653.19;5057412;28;45325;-74
2023/07/02 00:46:00;;;;;;;;;43.67;33.67;;;;;17.79;87.24;100656.69;5044981;28;45693;-74
2023/07/02 00:48:25;;;;;;;;;42.00;32.67;;;;;17.78;87.53;100663.00;5041960;28;45452;-73
2023/07/02 00:50:52;;;;;;;;;47.33;34.33;;;;;17.77;88.06;100663.91;5056683;28;45426;-72
2023/07/02 00:53:17;;;;;;;;;47.33;32.00;;;;;17.75;88.57;100658.69;5056341;28;46538;-73
2023/07/02 00:55:42;;;;;;;;;51.33;33.00;;;;;17.74;87.63;100659.63;5060130;28;45493;-72
2023/07/02 00:58:09;;;;;;;;;43.00;31.67;;;;;17.61;88.24;100642.59;5059961;28;45377;-73
2023/07/02 01:00:35;;;;;;;;;39.33;33.00;;;;;17.75;89.02;100666.66;5046071;28;45502;-74
2023/07/02 01:03:00;;;;;;;;;47.67;35.00;;;;;17.71;89.82;100659.78;5039807;28;45443;-73
2023/07/02 01:05:35;;;;;;;;;49.00;36.00;;;;;17.69;89.02;100665.19;5044112;28;45559;-73
2023/07/02 01:08:03;;;;;;;;;52.33;35.33;;;;;17.68;89.21;100671.47;5039931;28;45440;-74
2023/07/02 01:10:30;;;;;;;;;44.67;36.33;;;;;17.67;88.90;100675.06;5040254;28;45356;-74
2023/07/02 01:13:00;;;;;;;;;44.33;32.33;;;;;17.69;89.65;100678.50;5043350;28;46508;-75
2023/07/02 01:15:26;;;;;;;;;46.00;32.33;;;;;17.66;89.88;100678.69;5059900;28;45190;-73
2023/07/02 01:17:52;;;;;;;;;40.33;26.33;;;;;17.62;90.01;100671.78;5060095;28;45542;-73
2023/07/02 01:20:19;;;;;;;;;40.00;31.67;;;;;17.63;89.26;100672.63;5051742;28;45184;-73
2023/07/02 01:22:48;;;;;;;;;41.33;33.67;;;;;17.71;88.98;100681.09;5043118;28;46704;-74
2023/07/02 01:25:15;;;;;;;;;44.67;31.67;;;;;17.66;88.32;100678.69;5039696;28;45405;-73
2023/07/02 01:27:40;;;;;;;;;35.67;28.67;;;;;17.67;89.11;100672.38;5039787;28;45372;-72
2023/07/02 01:30:07;;;;;;;;;47.67;33.67;;;;;17.70;89.60;100679.34;5048244;28;45372;-72
2023/07/02 01:32:32;;;;;;;;;41.33;35.00;;;;;17.70;89.87;100682.03;5055264;28;47545;-73
2023/07/02 01:34:58;;;;;;;;;36.33;32.33;;;;;17.72;88.96;100688.16;5043620;28;45450;-73
2023/07/02 01:37:24;;;;;;;;;43.67;34.00;;;;;17.66;89.91;100681.34;5053131;28;45343;-73
2023/07/02 01:39:49;;;;;;;;;45.67;35.00;;;;;17.69;90.83;100689.16;5039610;28;45206;-73
2023/07/02 01:42:17;;;;;;;;;44.00;32.00;;;;;17.69;89.72;100686.50;5058211;28;46576;-73
2023/07/02 01:44:48;;;;;;;;;41.67;31.33;;;;;17.65;90.04;100684.09;5057334;28;45487;-73
2023/07/02 01:47:13;;;;;;;;;44.33;35.00;;;;;17.65;89.64;100676.94;5049689;28;45511;-74
2023/07/02 01:49:39;;;;;;;;;48.00;35.00;;;;;17.65;90.58;100676.94;5044503;28;45230;-73
2023/07/02 01:52:06;;;;;;;;;42.33;33.33;;;;;17.71;90.01;100687.25;5048297;28;46491;-72
2023/07/02 01:54:33;;;;;;;;;38.67;27.00;;;;;17.71;90.58;100689.94;5045502;28;45534;-73
2023/07/02 01:56:58;;;;;;;;;36.67;23.67;;;;;17.67;90.17;100676.88;5052561;28;45319;-72
2023/07/02 01:59:24;;;;;;;;;39.67;30.67;;;;;17.74;89.84;100689.75;5047594;28;45408;-72
2023/07/02 02:01:50;;;;;;;;;51.33;38.00;;;;;17.73;89.63;100681.84;5038766;28;46313;-73
2023/07/02 02:04:15;;;;;;;;;48.33;35.33;;;;;17.75;89.80;100696.81;5057438;28;45462;-72
2023/07/02 02:06:41;;;;;;;;;44.00;36.00;;;;;17.77;90.51;100695.88;5057542;28;45227;-71
2023/07/02 02:09:07;;;;;;;;;45.33;32.67;;;;;17.78;89.89;100698.47;5057913;28;45418;-72
2023/07/02 02:11:34;;;;;;;;;43.33;31.67;;;;;17.75;89.15;100698.63;5049355;28;45459;-74
2023/07/02 02:14:02;;;;;;;;;46.33;34.33;;;;;17.75;89.88;100696.81;5043840;28;45360;-73
2023/07/02 02:16:29;;;;;;;;;38.67;32.00;;;;;17.73;88.85;100698.72;5059127;28;45340;-73
2023/07/02 02:18:54;;;;;;;;;44.67;32.00;;;;;17.66;89.62;100689.34;5051884;28;45441;-72
2023/07/02 02:21:20;;;;;;;;;41.33;31.33;;;;;17.72;90.38;100696.97;5038629;28;47287;-72
2023/07/02 02:23:46;;;;;;;;;30.67;26.00;;;;;17.69;89.51;100693.63;5046043;28;45390;-71
2023/07/02 02:26:11;;;;;;;;;45.00;32.33;;;;;17.70;89.68;100698.00;5050186;28;45432;-74
2023/07/02 02:28:37;;;;;;;;;40.67;30.67;;;;;17.68;90.17;100703.41;5039069;28;45309;-73
2023/07/02 02:31:03;;;;;;;;;42.00;29.33;;;;;17.62;90.31;100694.91;5038354;28;46189;-72
2023/07/02 02:33:28;;;;;;;;;41.33;31.33;;;;;17.52;90.48;100679.41;5038899;28;45446;-72
2023/07/02 02:35:54;;;;;;;;;39.00;34.00;;;;;17.71;89.39;100702.41;5050647;28;45514;-72
2023/07/02 02:38:19;;;;;;;;;47.00;33.67;;;;;17.69;90.23;100706.94;5038884;28;45407;-72
2023/07/02 02:40:45;;;;;;;;;38.33;32.00;;;;;17.71;89.00;100710.38;5039693;28;46710;-72
2023/07/02 02:43:10;;;;;;;;;47.00;35.33;;;;;17.60;89.93;100696.78;5038613;28;45410;-72
2023/07/02 02:45:35;;;;;;;;;39.00;32.67;;;;;17.63;89.83;100694.81;5038779;28;45913;-74
2023/07/02 02:48:01;;;;;;;;;37.33;31.33;;;;;17.50;89.62;100677.75;5057108;28;45545;-73
2023/07/02 02:50:26;;;;;;;;;40.33;30.67;;;;;17.65;90.22;100697.41;5038085;28;46358;-73
2023/07/02 02:52:52;;;;;;;;;43.33;29.00;;;;;17.65;89.73;100698.25;5050439;28;45336;-75
2023/07/02 02:55:18;;;;;;;;;40.33;28.00;;;;;17.72;89.78;100712.13;5058602;28;45291;-71
2023/07/02 02:57:43;;;;;;;;;47.00;34.00;;;;;17.73;89.58;100714.69;5044346;28;45253;-73
2023/07/02 03:00:10;;;;;;;;;34.67;29.33;;;;;17.73;88.09;100712.03;5037710;28;45335;-73
2023/07/02 03:02:35;;;;;;;;;38.00;32.67;;;;;17.71;89.21;100713.91;5038321;28;45318;-72
2023/07/02 03:05:02;;;;;;;;;34.00;28.33;;;;;17.68;88.75;100703.41;5051792;28;45445;-72
2023/07/02 03:07:27;;;;;;;;;40.33;30.00;;;;;17.71;88.61;100718.38;5049918;28;45410;-72
2023/07/02 03:09:53;;;;;;;;;35.00;28.00;;;;;17.72;88.94;100718.28;5058198;28;45442;-73
2023/07/02 03:12:18;;;;;;;;;34.00;28.67;;;;;17.71;88.24;100719.22;5055804;28;45392;-72
2023/07/02 03:14:43;;;;;;;;;38.33;29.33;;;;;17.56;88.69;100698.75;5037873;28;45411;-72
2023/07/02 03:17:09;;;;;;;;;46.33;33.00;;;;;17.71;88.75;100726.38;5042156;28;45354;-72
2023/07/02 03:19:34;;;;;;;;;35.33;28.33;;;;;17.62;88.64;100714.41;5042630;28;46623;-72
2023/07/02 03:21:59;;;;;;;;;39.33;29.33;;;;;17.69;88.22;100726.44;5058083;28;45352;-73
2023/07/02 03:24:24;;;;;;;;;41.67;31.67;;;;;17.71;88.84;100729.03;5058013;28;45296;-73
2023/07/02 03:26:50;;;;;;;;;32.33;28.33;;;;;17.68;89.01;100732.69;5050763;28;45368;-72
2023/07/02 03:29:16;;;;;;;;;48.67;33.67;;;;;17.67;88.52;100730.97;5047604;28;47203;-72
2023/07/02 03:31:41;;;;;;;;;38.67;28.33;;;;;17.58;88.26;100716.34;5051170;28;45461;-72
2023/07/02 03:34:08;;;;;;;;;38.00;28.67;;;;;17.64;89.01;100731.13;5037725;28;45339;-72
2023/07/02 03:36:34;;;;;;;;;45.00;32.00;;;;;17.62;88.15;100733.03;5047691;28;45396;-71
2023/07/02 03:39:00;;;;;;;;;46.00;31.33;;;;;17.68;88.21;100738.03;5040050;28;46414;-72
2023/07/02 03:41:25;;;;;;;;;44.33;31.33;;;;;17.45;88.31;100701.13;5037811;28;45195;-72
2023/07/02 03:43:50;;;;;;;;;36.33;29.00;;;;;17.61;88.84;100733.97;5037730;28;45296;-72
2023/07/02 03:46:16;;;;;;;;;42.33;30.67;;;;;17.65;88.43;100738.19;5056468;28;45503;-72
2023/07/02 03:48:41;;;;;;;;;40.33;31.33;;;;;17.68;88.73;100742.50;5057499;28;46504;-74
2023/07/02 03:51:06;;;;;;;;;42.00;30.00;;;;;17.64;88.36;100735.63;5057349;28;45359;-72
2023/07/02 03:53:32;;;;;;;;;32.00;29.00;;;;;17.65;88.41;100751.50;5057911;28;45279;-72
2023/07/02 03:55:57;;;;;;;;;32.00;27.67;;;;;17.64;87.68;100746.25;5056289;28;45406;-74
2023/07/02 03:58:22;;;;;;;;;35.33;28.00;;;;;17.58;88.17;100745.63;5057546;28;45746;-73
2023/07/02 04:00:49;;;;;;;;;31.67;26.00;;;;;17.62;88.44;100746.34;5056901;28;45462;-73
2023/07/02 04:03:18;;;;;;;;;36.67;30.33;;;;;17.61;88.32;100749.94;5053896;28;45422;-72
2023/07/02 04:05:44;;;;;;;;;31.67;28.67;;;;;17.59;88.61;100746.50;5055856;28;45400;-72
2023/07/02 04:08:09;;;;;;;;;32.33;29.33;;;;;17.68;87.99;100761.16;5057111;28;45336;-73
2023/07/02 04:10:35;;;;;;;;;29.67;26.33;;;;;17.69;87.37;100760.22;5054560;28;45472;-74
2023/07/02 04:13:00;;;;;;;;;39.00;31.67;;;;;17.67;87.82;100762.94;5061897;28;45493;-74
2023/07/02 04:15:26;;;;;;;;;37.33;29.00;;;;;17.63;88.21;100760.50;5053697;28;45388;-74
2023/07/02 04:17:52;;;;;;;;;33.00;29.33;;;;;17.49;87.18;100732.81;5037388;28;46108;-76
2023/07/02 04:20:18;;;;;;;;;33.67;27.67;;;;;17.67;87.63;100768.25;5037223;28;45401;-74
2023/07/02 04:22:44;;;;;;;;;26.33;19.33;;;;;17.70;87.35;100768.13;5037313;28;45358;-74
2023/07/02 04:25:14;;;;;;;;;42.67;31.67;;;;;17.75;87.03;100778.53;5037189;28;45518;-72
2023/07/02 04:27:40;;;;;;;;;39.00;25.67;;;;;17.79;86.74;100784.53;5037845;28;46602;-74
2023/07/02 04:30:08;;;;;;;;;31.33;27.00;;;;;17.82;86.64;100787.03;5052270;28;45435;-72
2023/07/02 04:32:33;;;;;;;;;30.00;27.67;;;;;17.82;85.95;100792.38;5039008;28;45215;-71
2023/07/02 04:34:58;;;;;;;;;30.00;22.33;;;;;17.84;85.94;100799.34;5036844;28;45506;-72
2023/07/02 04:37:24;;;;;;;;;32.00;28.00;;;;;17.85;85.21;100790.41;5036865;28;46581;-73
2023/07/02 04:39:49;;;;;;;;;34.67;26.00;;;;;17.90;85.15;100800.84;5036898;28;45394;-72
2023/07/02 04:42:14;;;;;;;;;38.33;27.00;;;;;17.90;84.63;100799.03;5037069;28;45424;-72
2023/07/02 04:44:43;;;;;;;;;33.67;22.67;;;;;17.88;84.54;100792.91;5037024;28;45266;-74
2023/07/02 04:47:08;;;;;;;;;33.00;21.00;;;;;17.95;84.23;100806.81;5046870;28;46395;-73
2023/07/02 04:49:34;;;;;;;;;30.33;24.00;;;;;17.95;83.65;100803.28;5049181;28;45282;-74
2023/07/02 04:51:59;;;;;;;;;34.67;26.00;;;;;17.97;83.95;100798.75;5056888;28;45382;-73
2023/07/02 04:54:25;;;;;;;;;32.33;25.00;;;;;17.96;83.16;100792.53;5055902;28;45317;-73
2023/07/02 04:56:50;;;;;;;;;29.00;24.00;;;;;18.02;83.64;100796.69;5036497;28;46372;-72
2023/07/02 04:59:16;;;;;;;;;28.00;25.33;;;;;18.06;83.25;100806.22;5036507;28;45430;-73
2023/07/02 05:01:41;;;;;;;;;27.67;22.33;;;;;18.08;82.60;100807.88;5051520;28;45762;-75
2023/07/02 05:04:10;;;;;;;;;23.33;22.00;;;;;18.13;82.36;100809.44;5053009;28;45204;-74
2023/07/02 05:06:35;;;;;;;;;29.67;20.00;;;;;18.09;82.39;100796.28;5036711;28;45663;-72
2023/07/02 05:09:01;;;;;;;;;31.33;24.00;;;;;18.15;82.00;100810.22;5036377;28;45295;-74
2023/07/02 05:11:26;;;;;;;;;39.33;25.67;;;;;18.11;81.94;100798.88;5036378;28;45610;-73
2023/07/02 05:13:51;;;;;;;;;28.67;27.00;;;;;18.20;81.74;100808.19;5039746;28;45505;-73
2023/07/02 05:16:17;;;;;;;;;33.33;28.33;;;;;18.25;81.11;100814.09;5037903;28;46382;-73
2023/07/02 05:18:42;;;;;;;;;35.67;23.67;;;;;18.29;80.76;100818.31;5054935;28;45427;-73
2023/07/02 05:21:07;;;;;;;;;30.67;25.33;;;;;18.26;80.76;100807.84;5036231;28;45419;-73
2023/07/02 05:23:33;;;;;;;;;35.67;27.00;;;;;18.33;80.99;100805.69;5045341;28;45373;-73
2023/07/02 05:25:58;;;;;;;;;26.67;25.00;;;;;18.37;80.69;100818.78;5056282;28;46440;-72
2023/07/02 05:28:24;;;;;;;;;31.67;25.33;;;;;18.38;80.62;100817.81;5051737;28;45482;-73
2023/07/02 05:30:50;;;;;;;;;43.33;32.33;;;;;18.43;80.52;100822.94;5039550;28;45376;-73
2023/07/02 05:33:15;;;;;;;;;26.00;22.00;;;;;18.15;80.31;100778.22;5039750;28;45388;-74
2023/07/02 05:35:40;;;;;;;;;36.00;30.67;;;;;18.41;80.32;100820.34;5039351;28;46425;-72
2023/07/02 05:38:06;;;;;;;;;35.33;25.67;;;;;18.44;79.93;100824.63;5039639;28;45392;-72
2023/07/02 05:40:31;;;;;;;;;36.00;25.00;;;;;18.44;80.25;100824.63;5056397;28;45823;-71
2023/07/02 05:42:57;;;;;;;;;24.33;22.33;;;;;18.39;80.23;100808.03;5059867;28;45484;-72
2023/07/02 05:45:23;;;;;;;;;31.67;23.67;;;;;18.51;80.00;100827.84;5059581;28;45814;-71
2023/07/02 05:47:49;;;;;;;;;24.33;22.00;;;;;18.53;79.68;100832.13;5041993;28;45653;-71
2023/07/02 05:50:14;;;;;;;;;27.67;24.33;;;;;18.58;79.49;100840.72;5039540;28;45234;-72
2023/07/02 05:52:40;;;;;;;;;28.33;25.67;;;;;18.59;79.47;100836.28;5039655;28;45363;-72
2023/07/02 05:55:10;;;;;;;;;30.33;24.33;;;;;18.62;79.34;100836.97;5043718;28;45546;-72
2023/07/02 05:57:36;;;;;;;;;30.67;24.33;;;;;18.66;79.21;100834.13;5053276;28;45383;-71
2023/07/02 06:00:01;;;;;;;;;32.33;24.67;;;;;18.73;78.95;100840.84;5058943;28;45593;-74
2023/07/02 06:02:27;;;;;;;;;29.33;23.67;;;;;18.78;78.83;100846.78;5040389;28;45376;-74
2023/07/02 06:04:52;;;;;;;;;29.00;24.00;;;;;18.84;78.42;100848.25;5039005;28;45287;-73
2023/07/02 06:07:17;;;;;;;;;32.00;23.00;;;;;18.82;78.13;100837.66;5039343;28;45600;-72
2023/07/02 06:09:43;;;;;;;;;33.33;28.00;;;;;18.91;78.06;100850.50;5045565;28;45416;-73
2023/07/02 06:12:08;;;;;;;;;27.00;21.00;;;;;18.97;77.81;100849.31;5047599;28;45433;-73
2023/07/02 06:14:33;;;;;;;;;31.33;23.67;;;;;18.96;77.80;100845.75;5059131;28;46436;-74
2023/07/02 06:17:00;;;;;;;;;32.67;25.33;;;;;19.05;77.76;100859.53;5058813;28;45224;-73
2023/07/02 06:19:26;;;;;;;;;35.67;27.00;;;;;19.08;77.87;100860.25;5059340;28;45253;-73
2023/07/02 06:21:51;;;;;;;;;35.67;25.00;;;;;19.09;77.92;100856.63;5059339;28;45484;-72
2023/07/02 06:24:16;;;;;;;;;33.00;30.00;;;;;19.21;77.66;100862.19;5045968;28;45427;-73
2023/07/02 06:26:42;;;;;;;;;38.00;27.33;;;;;19.28;77.11;100866.25;5052527;28;45308;-72
2023/07/02 06:29:07;;;;;;;;;31.00;24.33;;;;;19.38;76.99;100866.59;5053832;28;45491;-74
2023/07/02 06:31:32;;;;;;;;;28.67;24.33;;;;;19.28;76.58;100851.06;5053447;28;45274;-72
2023/07/02 06:33:58;;;;;;;;;35.67;28.67;;;;;19.45;76.53;100876.81;5038407;28;46377;-72
2023/07/02 06:36:23;;;;;;;;;29.33;22.00;;;;;19.51;75.77;100883.59;5058760;28;45311;-73
2023/07/02 06:38:48;;;;;;;;;28.67;23.33;;;;;19.55;75.91;100879.81;5054600;28;45507;-74
2023/07/02 06:41:14;;;;;;;;;31.67;23.00;;;;;19.58;74.87;100887.66;5058666;28;45387;-72
2023/07/02 06:43:43;;;;;;;;;23.00;20.00;;;;;19.59;75.30;100878.69;5054444;28;46447;-73
2023/07/02 06:46:10;;;;;;;;;33.67;26.00;;;;;19.69;75.46;100888.81;5051357;28;45440;-74
2023/07/02 06:48:35;;;;;;;;;31.00;24.67;;;;;19.75;74.70;100892.00;5058450;28;45211;-72
2023/07/02 06:51:01;;;;;;;;;33.67;25.33;;;;;19.73;74.72;100888.53;5058754;28;45315;-72
2023/07/02 06:53:26;;;;;;;;;29.67;23.33;;;;;19.74;74.21;100889.44;5056610;28;45286;-72
2023/07/02 06:55:51;;;;;;;;;25.00;18.33;;;;;19.72;74.54;100896.66;5044831;28;45406;-73
2023/07/02 06:58:17;;;;;;;;;35.00;26.00;;;;;19.62;74.27;100886.53;5048923;28;45489;-72
2023/07/02 07:00:42;;;;;;;;;29.33;23.00;;;;;19.72;74.32;100905.56;5057032;28;45419;-73
2023/07/02 07:03:07;;;;;;;;;24.33;21.33;;;;;19.78;73.10;100897.19;5051126;28;46199;-73
2023/07/02 07:05:33;;;;;;;;;23.00;22.67;;;;;19.87;72.62;100889.56;5058365;28;45340;-72
2023/07/02 07:08:00;;;;;;;;;28.00;22.33;;;;;19.93;71.85;100892.75;5051372;28;45367;-73
2023/07/02 07:10:26;;;;;;;;;30.33;27.67;;;;;20.05;71.10;100904.50;5038362;28;45690;-72
2023/07/02 07:12:52;;;;;;;;;30.00;24.00;;;;;20.06;70.98;100911.59;5037877;28;46975;-72
2023/07/02 07:15:17;;;;;;;;;27.67;22.67;;;;;20.09;72.36;100914.06;5038091;28;45290;-72
2023/07/02 07:17:42;;;;;;;;;33.67;27.33;;;;;20.25;72.17;100919.34;5048391;28;45890;-72
2023/07/02 07:20:08;;;;;;;;;29.00;25.33;;;;;20.56;70.77;100916.59;5038266;28;45278;-71
2023/07/02 07:22:34;;;;;;;;;31.67;24.33;;;;;20.68;70.25;100906.03;5040203;28;46728;-72
2023/07/02 07:24:59;;;;;;;;;29.67;24.33;;;;;20.81;69.91;100906.13;5047579;28;45312;-72
2023/07/02 07:27:25;;;;;;;;;31.00;20.67;;;;;20.86;67.83;100922.75;5045642;28;45671;-71
2023/07/02 07:29:50;;;;;;;;;29.33;23.67;;;;;20.88;67.94;100928.00;5046372;28;45474;-73
2023/07/02 07:32:16;;;;;;;;;26.33;23.00;;;;;20.86;66.34;100921.88;5053808;28;45540;-72
2023/07/02 07:34:42;;;;;;;;;29.67;24.67;;;;;20.94;66.68;100919.59;5040392;28;45484;-73
2023/07/02 07:37:07;;;;;;;;;24.33;20.67;;;;;20.95;65.85;100915.94;5044006;28;45363;-72
2023/07/02 07:39:32;;;;;;;;;24.00;21.00;;;;;21.03;65.72;100923.50;5052970;28;45281;-73
2023/07/02 07:41:58;;;;;;;;;18.00;16.67;;;;;21.02;64.57;100924.44;5044621;28;45349;-73
2023/07/02 07:44:23;;;;;;;;;25.67;20.33;;;;;20.98;63.06;100913.06;5045502;28;45428;-72
2023/07/02 07:46:48;;;;;;;;;26.00;21.67;;;;;21.05;62.66;100916.22;5057484;28;45405;-73
2023/07/02 07:49:14;;;;;;;;;23.00;22.33;;;;;21.04;63.79;100914.50;5057734;28;45404;-72
2023/07/02 07:51:39;;;;;;;;;28.67;24.33;;;;;21.12;62.37;100928.25;5053771;28;46263;-74
2023/07/02 07:54:04;;;;;;;;;26.67;22.00;;;;;21.22;60.86;100921.34;5048511;28;45451;-74
2023/07/02 07:56:30;;;;;;;;;26.67;21.33;;;;;21.35;60.34;100924.09;5056349;28;45438;-74
2023/07/02 07:58:55;;;;;;;;;29.33;21.33;;;;;21.49;60.92;100925.00;5048639;28;45321;-73
2023/07/02 08:01:20;;;;;;;;;23.33;19.67;;;;;21.53;60.03;100924.72;5039155;28;45547;-73
2023/07/02 08:03:46;;;;;;;;;26.00;19.33;;;;;21.70;58.38;100930.78;5040792;28;45450;-72
2023/07/02 08:06:11;;;;;;;;;30.67;22.33;;;;;21.71;57.78;100919.97;5046563;28;45397;-73
2023/07/02 08:08:37;;;;;;;;;17.00;16.67;;;;;21.76;59.48;100924.16;5051654;28;45438;-72
2023/07/02 08:11:02;;;;;;;;;19.67;18.67;;;;;21.74;57.12;100918.91;5051858;28;45550;-74
2023/07/02 08:13:27;;;;;;;;;20.33;17.00;;;;;21.82;57.86;100923.75;5050711;28;45407;-74
2023/07/02 08:15:53;;;;;;;;;26.00;18.00;;;;;21.88;57.00;100924.16;5052816;28;45388;-75
2023/07/02 08:18:18;;;;;;;;;20.67;20.67;;;;;21.96;56.88;100909.38;5051995;28;45506;-73
2023/07/02 08:20:43;;;;;;;;;22.00;19.00;;;;;22.11;58.21;100924.44;5041956;28;45435;-73
2023/07/02 08:23:09;;;;;;;;;27.33;21.00;;;;;22.09;57.20;100929.06;5049457;28;45353;-73
2023/07/02 08:25:34;;;;;;;;;21.00;19.00;;;;;22.17;56.82;100934.75;5036884;28;45409;-74
2023/07/02 08:27:59;;;;;;;;;26.00;21.33;;;;;22.27;56.31;100930.44;5052773;28;45233;-73
2023/07/02 08:30:25;;;;;;;;;23.67;18.33;;;;;22.44;55.48;100933.84;5046275;28;45459;-73
2023/07/02 08:32:50;;;;;;;;;22.33;20.67;;;;;22.48;54.72;100923.72;5051265;28;45434;-73
2023/07/02 08:35:16;;;;;;;;;23.33;22.00;;;;;22.52;54.87;100917.19;5052789;28;45766;-74
2023/07/02 08:37:41;;;;;;;;;19.33;19.00;;;;;22.43;53.98;100902.59;5045032;28;45572;-72
2023/07/02 08:40:15;;;;;;;;;26.00;19.00;;;;;22.79;54.00;100925.13;5047666;28;45305;-74
2023/07/02 08:42:41;;;;;;;;;17.00;13.67;;;;;22.88;52.15;100924.44;5056710;28;46064;-73
2023/07/02 08:45:08;;;;;;;;;18.00;14.67;;;;;23.02;50.89;100927.94;5056788;28;45390;-73
2023/07/02 08:47:34;;;;;;;;;21.33;15.67;;;;;23.22;50.76;100938.16;5070315;28;45424;-73
2023/07/02 08:49:59;;;;;;;;;23.00;16.00;;;;;23.40;49.46;100929.72;5056574;28;45398;-75
2023/07/02 08:52:25;;;;;;;;;18.33;15.00;;;;;23.54;49.43;100934.03;5056724;28;45443;-73
2023/07/02 08:54:50;;;;;;;;;27.33;25.00;;;;;23.72;50.93;100932.66;5050854;28;45369;-73
2023/07/02 08:57:16;;;;;;;;;18.67;17.00;;;;;23.77;48.52;100926.94;5048198;28;45394;-73
2023/07/02 08:59:41;;;;;;;;;27.00;18.33;;;;;23.78;50.03;100924.13;5046177;28;46292;-73
2023/07/02 09:02:06;;;;;;;;;19.33;17.00;;;;;23.85;48.45;100937.13;5038736;28;45528;-73
2023/07/02 09:04:32;;;;;;;;;15.33;13.33;;;;;23.92;48.83;100933.88;5049422;28;45228;-73
2023/07/02 09:07:03;;;;;;;;;18.33;13.33;;;;;24.04;48.19;100942.00;5058556;28;45546;-73
2023/07/02 09:09:29;;;;;;;;;13.00;12.00;;;;;23.91;47.14;100928.63;5044673;28;45418;-74
2023/07/02 09:11:54;;;;;;;;;13.00;11.67;;;;;23.92;46.22;100933.00;5050826;28;45940;-73
2023/07/02 09:14:26;;;;;;;;;20.33;19.00;;;;;23.98;46.95;100940.63;5044377;28;45293;-72
2023/07/02 09:17:02;;;;;;;;;19.33;16.00;;;;;23.94;47.31;100937.31;5044644;28;45459;-73
2023/07/02 09:19:27;;;;;;;;;18.00;14.33;;;;;23.83;45.23;100929.16;5051156;28;46769;-73
2023/07/02 09:21:52;;;;;;;;;13.67;11.33;;;;;23.68;45.71;100924.97;5051664;28;45336;-74
2023/07/02 09:24:21;;;;;;;;;20.67;16.33;;;;;23.55;47.09;100939.31;5052727;28;45402;-74
2023/07/02 09:26:47;;;;;;;;;18.67;14.00;;;;;23.39;47.22;100936.91;5042311;28;45462;-73
2023/07/02 09:29:13;;;;;;;;;16.33;14.33;;;;;23.20;47.18;100929.34;5055731;28;46400;-73
2023/07/02 09:31:46;;;;;;;;;18.00;15.00;;;;;24.13;47.99;100934.06;5057336;28;45352;-73
2023/07/02 09:34:12;;;;;;;;;18.67;15.00;;;;;24.78;44.95;100936.25;5052907;28;45436;-74
2023/07/02 09:36:40;;;;;;;;;19.67;17.33;;;;;25.21;44.40;100930.06;5059724;28;45581;-74
2023/07/02 09:39:27;;;;;;;;;22.33;15.67;;;;;25.26;44.46;100924.31;5054043;28;47332;-73
2023/07/02 09:41:55;;;;;;;;;13.00;13.00;;;;;24.98;43.81;100911.25;5031933;28;45324;-72
2023/07/02 09:44:21;;;;;;;;;21.67;16.00;;;;;24.94;44.60;100933.19;5046614;28;45364;-73
2023/07/02 09:46:55;;;;;;;;;16.00;12.33;;;;;24.78;44.54;100934.41;5058797;28;45350;-72
2023/07/02 09:49:22;;;;;;;;;17.00;11.33;;;;;24.61;43.83;100935.75;5059303;28;47306;-72
2023/07/02 09:51:48;;;;;;;;;9.33;8.00;;;;;24.37;44.36;100929.56;5059320;28;45314;-72
2023/07/02 09:54:13;;;;;;;;;17.00;12.33;;;;;24.21;44.27;100935.28;5053022;28;45253;-72
2023/07/02 09:56:39;;;;;;;;;18.33;13.00;;;;;23.96;43.66;100932.69;5039504;28;45603;-73
2023/07/02 09:59:05;;;;;;;;;15.33;11.67;;;;;23.83;44.55;100945.28;5041098;28;45498;-72
2023/07/02 10:01:30;;;;;;;;;12.33;10.67;;;;;23.70;44.89;100950.75;5058597;28;45345;-72
2023/07/02 10:03:56;;;;;;;;;13.33;10.33;;;;;23.91;45.31;100945.59;5045040;28;45598;-72
2023/07/02 10:06:21;;;;;;;;;16.00;13.67;;;;;24.12;43.94;100942.25;5053533;28;45283;-73
2023/07/02 10:08:56;;;;;;;;;17.33;14.33;;;;;24.20;43.54;100952.44;5058813;28;46350;-73
2023/07/02 10:11:33;;;;;;;;;13.67;11.00;;;;;24.29;44.37;100939.09;5059202;28;45538;-73
2023/07/02 10:13:59;;;;;;;;;18.00;13.33;;;;;24.21;43.31;100946.06;5058565;28;45384;-73
2023/07/02 10:16:27;;;;;;;;;14.67;11.67;;;;;24.08;43.77;100938.06;5055158;28;45326;-73
2023/07/02 10:18:52;;;;;;;;;13.33;11.33;;;;;25.02;43.40;100939.69;5039837;28;47719;-74
2023/07/02 10:21:18;;;;;;;;;16.00;13.67;;;;;26.74;42.04;100936.13;5049537;28;45356;-73
2023/07/02 10:23:44;;;;;;;;;12.33;8.33;;;;;28.61;38.78;100938.84;5054428;28;45479;-74
2023/07/02 10:26:17;;;;;;;;;14.33;11.33;;;;;29.81;37.90;100934.25;5053604;28;45348;-73
2023/07/02 10:28:42;;;;;;;;;11.33;9.67;;;;;30.50;37.54;100939.94;5052877;28;45662;-73
2023/07/02 10:31:19;;;;;;;;;14.33;11.00;;;;;30.84;37.00;100944.50;5047011;27;45334;-72
2023/07/02 10:33:44;;;;;;;;;16.33;11.33;;;;;31.30;33.49;100943.34;5052237;28;45301;-74
2023/07/02 10:36:18;;;;;;;;;13.00;11.00;;;;;31.39;36.28;100945.91;5055738;28;45324;-73
2023/07/02 10:38:44;;;;;;;;;16.33;13.00;;;;;31.24;35.36;100943.00;5042551;28;46644;-73
2023/07/02 10:41:09;;;;;;;;;15.00;12.00;;;;;30.91;34.03;100942.00;5039027;28;45286;-74
2023/07/02 10:43:34;;;;;;;;;12.67;12.67;;;;;30.59;33.61;100932.69;5038359;28;45430;-72
2023/07/02 10:46:00;;;;;;;;;15.00;12.33;;;;;30.12;33.03;100942.03;5038900;28;45358;-73
2023/07/02 10:48:26;;;;;;;;;14.00;12.33;;;;;29.95;34.62;100946.47;5048075;28;47417;-74
2023/07/02 10:50:51;;;;;;;;;15.67;12.67;;;;;30.39;33.15;100934.72;5043195;28;45437;-74
2023/07/02 10:53:18;;;;;;;;;13.33;11.67;;;;;31.33;33.47;100927.53;5047813;28;45201;-74
2023/07/02 10:55:44;;;;;;;;;13.33;12.00;;;;;31.98;31.37;100934.09;5057309;28;45440;-73
2023/07/02 10:58:11;;;;;;;;;12.00;10.00;;;;;31.91;30.93;100939.38;5045737;28;45312;-74
2023/07/02 11:00:50;;;;;;;;;14.67;11.33;;;;;31.35;32.46;100939.09;5046713;28;45448;-74
2023/07/02 11:03:20;;;;;;;;;13.33;12.67;;;;;30.67;32.02;100940.88;5058512;28;45297;-73
2023/07/02 11:05:46;;;;;;;;;12.00;9.33;;;;;30.21;33.35;100934.78;5053817;28;45275;-72